sensor_id;sensor_type;location;lat;lon;timestamp;temperature;humidity
75099;DHT22;63685;47.374;8.498;2022-11-20T00:00:03;20.50;68.50
75099;DHT22;63685;47.374;8.498;2022-11-20T00:02:29;20.50;68.50
75099;DHT22;63685;47.374;8.498;2022-11-20T00:04:55;20.40;68.40
75099;DHT22;63685;47.374;8.498;2022-11-20T00:07:20;20.50;68.60
75099;DHT22;63685;47.374;8.498;2022-11-20T00:09:46;20.40;68.50
75099;DHT22;63685;47.374;8.498;2022-11-20T00:12:11;20.40;68.40
75099;DHT22;63685;47.374;8.498;2022-11-20T00:14:37;20.40;68.40
75099;DHT22;63685;47.374;8.498;2022-11-20T00:17:02;20.40;68.40
75099;DHT22;63685;47.374;8.498;2022-11-20T00:19:28;20.40;68.40
75099;DHT22;63685;47.374;8.498;2022-11-20T00:21:53;20.40;68.40
75099;DHT22;63685;47.374;8.498;2022-11-20T00:24:21;20.40;68.50
75099;DHT22;63685;47.374;8.498;2022-11-20T00:26:46;20.40;68.50
75099;DHT22;63685;47.374;8.498;2022-11-20T00:29:12;20.40;68.60
75099;DHT22;63685;47.374;8.498;2022-11-20T00:31:37;20.40;68.50
75099;DHT22;63685;47.374;8.498;2022-11-20T00:34:03;20.40;68.60
75099;DHT22;63685;47.374;8.498;2022-11-20T00:36:32;20.40;68.70
75099;DHT22;63685;47.374;8.498;2022-11-20T00:38:59;20.40;68.80
75099;DHT22;63685;47.374;8.498;2022-11-20T00:41:26;20.40;68.80
75099;DHT22;63685;47.374;8.498;2022-11-20T00:43:53;20.40;68.80
75099;DHT22;63685;47.374;8.498;2022-11-20T00:46:24;20.40;68.80
75099;DHT22;63685;47.374;8.498;2022-11-20T00:48:50;20.40;68.80
75099;DHT22;63685;47.374;8.498;2022-11-20T00:51:18;20.40;68.80
75099;DHT22;63685;47.374;8.498;2022-11-20T00:53:45;20.40;68.90
75099;DHT22;63685;47.374;8.498;2022-11-20T00:56:14;20.40;68.90
75099;DHT22;63685;47.374;8.498;2022-11-20T00:58:41;20.40;68.80
75099;DHT22;63685;47.374;8.498;2022-11-20T01:01:13;20.40;68.80
75099;DHT22;63685;47.374;8.498;2022-11-20T01:03:41;20.40;68.80
75099;DHT22;63685;47.374;8.498;2022-11-20T01:06:11;20.50;68.80
75099;DHT22;63685;47.374;8.498;2022-11-20T01:08:37;20.40;68.80
75099;DHT22;63685;47.374;8.498;2022-11-20T01:11:08;20.40;68.80
75099;DHT22;63685;47.374;8.498;2022-11-20T01:13:34;20.40;68.80
75099;DHT22;63685;47.374;8.498;2022-11-20T01:16:05;20.40;68.80
75099;DHT22;63685;47.374;8.498;2022-11-20T01:18:31;20.40;69.00
75099;DHT22;63685;47.374;8.498;2022-11-20T01:21:05;20.40;69.00
75099;DHT22;63685;47.374;8.498;2022-11-20T01:23:35;20.40;68.90
75099;DHT22;63685;47.374;8.498;2022-11-20T01:26:06;20.40;68.90
75099;DHT22;63685;47.374;8.498;2022-11-20T01:28:32;20.50;68.90
75099;DHT22;63685;47.374;8.498;2022-11-20T01:30:59;20.40;68.80
75099;DHT22;63685;47.374;8.498;2022-11-20T01:33:25;20.40;68.80
75099;DHT22;63685;47.374;8.498;2022-11-20T01:35:51;20.40;68.90
75099;DHT22;63685;47.374;8.498;2022-11-20T01:38:16;20.40;68.90
75099;DHT22;63685;47.374;8.498;2022-11-20T01:40:42;20.40;68.90
75099;DHT22;63685;47.374;8.498;2022-11-20T01:43:18;20.40;68.90
75099;DHT22;63685;47.374;8.498;2022-11-20T01:48:52;20.40;68.90
75099;DHT22;63685;47.374;8.498;2022-11-20T01:51:28;20.50;69.00
75099;DHT22;63685;47.374;8.498;2022-11-20T01:53:59;20.40;69.00
75099;DHT22;63685;47.374;8.498;2022-11-20T01:56:27;20.40;68.90
75099;DHT22;63685;47.374;8.498;2022-11-20T01:58:57;20.40;68.90
75099;DHT22;63685;47.374;8.498;2022-11-20T02:01:23;20.40;69.00
75099;DHT22;63685;47.374;8.498;2022-11-20T02:03:49;20.40;69.00
75099;DHT22;63685;47.374;8.498;2022-11-20T02:06:32;20.40;69.10
75099;DHT22;63685;47.374;8.498;2022-11-20T02:09:00;20.40;69.10
75099;DHT22;63685;47.374;8.498;2022-11-20T02:11:26;20.40;69.10
75099;DHT22;63685;47.374;8.498;2022-11-20T02:13:51;20.40;69.20
75099;DHT22;63685;47.374;8.498;2022-11-20T02:16:24;20.40;69.20
75099;DHT22;63685;47.374;8.498;2022-11-20T02:18:51;20.40;69.30
75099;DHT22;63685;47.374;8.498;2022-11-20T02:24:19;20.40;69.30
75099;DHT22;63685;47.374;8.498;2022-11-20T02:26:54;20.40;69.30
75099;DHT22;63685;47.374;8.498;2022-11-20T02:29:32;20.40;69.30
75099;DHT22;63685;47.374;8.498;2022-11-20T02:32:00;20.40;69.30
75099;DHT22;63685;47.374;8.498;2022-11-20T02:34:27;20.40;69.30
75099;DHT22;63685;47.374;8.498;2022-11-20T02:36:54;20.40;69.40
75099;DHT22;63685;47.374;8.498;2022-11-20T02:39:20;20.40;69.40
75099;DHT22;63685;47.374;8.498;2022-11-20T02:41:47;20.40;69.30
75099;DHT22;63685;47.374;8.498;2022-11-20T02:44:13;20.40;69.40
75099;DHT22;63685;47.374;8.498;2022-11-20T02:46:39;20.40;69.30
75099;DHT22;63685;47.374;8.498;2022-11-20T02:49:05;20.40;69.40
75099;DHT22;63685;47.374;8.498;2022-11-20T02:51:31;20.40;69.40
75099;DHT22;63685;47.374;8.498;2022-11-20T02:53:57;20.40;69.40
75099;DHT22;63685;47.374;8.498;2022-11-20T02:56:23;20.40;69.40
75099;DHT22;63685;47.374;8.498;2022-11-20T02:58:49;20.40;69.40
75099;DHT22;63685;47.374;8.498;2022-11-20T03:01:14;20.40;69.40
75099;DHT22;63685;47.374;8.498;2022-11-20T03:03:40;20.40;69.40
75099;DHT22;63685;47.374;8.498;2022-11-20T03:06:06;20.50;69.40
75099;DHT22;63685;47.374;8.498;2022-11-20T03:08:32;20.50;69.50
75099;DHT22;63685;47.374;8.498;2022-11-20T03:11:05;20.40;69.40
75099;DHT22;63685;47.374;8.498;2022-11-20T03:13:31;20.50;69.50
75099;DHT22;63685;47.374;8.498;2022-11-20T03:15:57;20.50;69.40
75099;DHT22;63685;47.374;8.498;2022-11-20T03:18:22;20.50;69.40
75099;DHT22;63685;47.374;8.498;2022-11-20T03:20:48;20.50;69.40
75099;DHT22;63685;47.374;8.498;2022-11-20T03:23:13;20.50;69.40
75099;DHT22;63685;47.374;8.498;2022-11-20T03:25:39;20.50;69.30
75099;DHT22;63685;47.374;8.498;2022-11-20T03:28:05;20.50;69.40
75099;DHT22;63685;47.374;8.498;2022-11-20T03:30:30;20.50;69.30
75099;DHT22;63685;47.374;8.498;2022-11-20T03:32:56;20.50;69.30
75099;DHT22;63685;47.374;8.498;2022-11-20T03:35:21;20.50;69.30
75099;DHT22;63685;47.374;8.498;2022-11-20T03:37:47;20.50;69.30
75099;DHT22;63685;47.374;8.498;2022-11-20T03:40:13;20.50;69.30
75099;DHT22;63685;47.374;8.498;2022-11-20T03:42:39;20.50;69.30
75099;DHT22;63685;47.374;8.498;2022-11-20T03:45:11;20.50;69.30
75099;DHT22;63685;47.374;8.498;2022-11-20T03:47:36;20.50;69.30
75099;DHT22;63685;47.374;8.498;2022-11-20T03:50:02;20.50;69.30
75099;DHT22;63685;47.374;8.498;2022-11-20T03:52:28;20.50;69.30
75099;DHT22;63685;47.374;8.498;2022-11-20T03:54:53;20.50;69.30
75099;DHT22;63685;47.374;8.498;2022-11-20T03:57:19;20.50;69.40
75099;DHT22;63685;47.374;8.498;2022-11-20T03:59:45;20.50;69.30
75099;DHT22;63685;47.374;8.498;2022-11-20T04:02:10;20.40;69.20
75099;DHT22;63685;47.374;8.498;2022-11-20T04:04:36;20.50;69.30
75099;DHT22;63685;47.374;8.498;2022-11-20T04:07:02;20.50;69.30
75099;DHT22;63685;47.374;8.498;2022-11-20T04:09:27;20.50;69.40
75099;DHT22;63685;47.374;8.498;2022-11-20T04:11:53;20.40;69.30
75099;DHT22;63685;47.374;8.498;2022-11-20T04:14:18;20.40;69.30
75099;DHT22;63685;47.374;8.498;2022-11-20T04:16:44;20.40;69.40
75099;DHT22;63685;47.374;8.498;2022-11-20T04:19:12;20.40;69.40
75099;DHT22;63685;47.374;8.498;2022-11-20T04:21:37;20.40;69.40
75099;DHT22;63685;47.374;8.498;2022-11-20T04:24:03;20.40;69.40
75099;DHT22;63685;47.374;8.498;2022-11-20T04:26:30;20.40;69.40
75099;DHT22;63685;47.374;8.498;2022-11-20T04:28:56;20.40;70.10
75099;DHT22;63685;47.374;8.498;2022-11-20T04:31:26;20.40;69.50
75099;DHT22;63685;47.374;8.498;2022-11-20T04:33:52;20.40;69.40
75099;DHT22;63685;47.374;8.498;2022-11-20T04:36:19;20.40;69.40
75099;DHT22;63685;47.374;8.498;2022-11-20T04:38:46;20.40;69.30
75099;DHT22;63685;47.374;8.498;2022-11-20T04:41:18;20.40;69.30
75099;DHT22;63685;47.374;8.498;2022-11-20T04:43:48;20.50;69.30
75099;DHT22;63685;47.374;8.498;2022-11-20T04:46:15;20.40;69.20
75099;DHT22;63685;47.374;8.498;2022-11-20T04:48:41;20.50;69.20
75099;DHT22;63685;47.374;8.498;2022-11-20T04:51:06;20.50;69.10
75099;DHT22;63685;47.374;8.498;2022-11-20T04:53:32;20.50;69.20
75099;DHT22;63685;47.374;8.498;2022-11-20T04:56:03;20.40;69.10
75099;DHT22;63685;47.374;8.498;2022-11-20T04:58:29;20.40;69.10
75099;DHT22;63685;47.374;8.498;2022-11-20T05:01:04;20.40;69.10
75099;DHT22;63685;47.374;8.498;2022-11-20T05:03:30;20.40;69.10
75099;DHT22;63685;47.374;8.498;2022-11-20T05:05:55;20.40;69.10
75099;DHT22;63685;47.374;8.498;2022-11-20T05:08:21;20.40;69.10
75099;DHT22;63685;47.374;8.498;2022-11-20T05:10:47;20.40;69.30
75099;DHT22;63685;47.374;8.498;2022-11-20T05:13:12;20.40;69.20
75099;DHT22;63685;47.374;8.498;2022-11-20T05:15:38;20.40;69.60
75099;DHT22;63685;47.374;8.498;2022-11-20T05:18:04;20.40;69.40
75099;DHT22;63685;47.374;8.498;2022-11-20T05:20:29;20.40;69.40
75099;DHT22;63685;47.374;8.498;2022-11-20T05:22:57;20.40;69.40
75099;DHT22;63685;47.374;8.498;2022-11-20T05:25:23;20.40;69.40
75099;DHT22;63685;47.374;8.498;2022-11-20T05:27:48;20.40;69.50
75099;DHT22;63685;47.374;8.498;2022-11-20T05:30:14;20.40;69.40
75099;DHT22;63685;47.374;8.498;2022-11-20T05:32:40;20.40;69.30
75099;DHT22;63685;47.374;8.498;2022-11-20T05:35:06;20.40;69.30
75099;DHT22;63685;47.374;8.498;2022-11-20T05:37:31;20.40;69.30
75099;DHT22;63685;47.374;8.498;2022-11-20T05:39:57;20.40;69.30
75099;DHT22;63685;47.374;8.498;2022-11-20T05:42:23;20.40;69.40
75099;DHT22;63685;47.374;8.498;2022-11-20T05:44:59;20.40;69.40
75099;DHT22;63685;47.374;8.498;2022-11-20T05:47:31;20.40;69.40
75099;DHT22;63685;47.374;8.498;2022-11-20T05:49:56;20.40;69.30
75099;DHT22;63685;47.374;8.498;2022-11-20T05:52:22;20.40;69.30
75099;DHT22;63685;47.374;8.498;2022-11-20T05:54:48;20.40;69.30
75099;DHT22;63685;47.374;8.498;2022-11-20T05:57:13;20.40;69.60
75099;DHT22;63685;47.374;8.498;2022-11-20T05:59:39;20.40;69.30
75099;DHT22;63685;47.374;8.498;2022-11-20T06:02:04;20.40;69.20
75099;DHT22;63685;47.374;8.498;2022-11-20T06:04:30;20.40;69.30
75099;DHT22;63685;47.374;8.498;2022-11-20T06:06:55;20.40;69.30
75099;DHT22;63685;47.374;8.498;2022-11-20T06:09:21;20.40;69.20
75099;DHT22;63685;47.374;8.498;2022-11-20T06:11:46;20.40;69.30
75099;DHT22;63685;47.374;8.498;2022-11-20T06:14:12;20.40;69.30
75099;DHT22;63685;47.374;8.498;2022-11-20T06:16:37;20.40;69.30
75099;DHT22;63685;47.374;8.498;2022-11-20T06:19:03;20.40;69.30
75099;DHT22;63685;47.374;8.498;2022-11-20T06:21:28;20.40;69.30
75099;DHT22;63685;47.374;8.498;2022-11-20T06:23:54;20.40;69.30
75099;DHT22;63685;47.374;8.498;2022-11-20T06:26:25;20.40;69.30
75099;DHT22;63685;47.374;8.498;2022-11-20T06:28:51;20.30;69.20
75099;DHT22;63685;47.374;8.498;2022-11-20T06:31:19;20.30;69.20
75099;DHT22;63685;47.374;8.498;2022-11-20T06:33:46;20.30;69.20
75099;DHT22;63685;47.374;8.498;2022-11-20T06:36:14;20.40;69.60
75099;DHT22;63685;47.374;8.498;2022-11-20T06:38:40;20.30;69.40
75099;DHT22;63685;47.374;8.498;2022-11-20T06:41:07;20.30;69.60
75099;DHT22;63685;47.374;8.498;2022-11-20T06:43:35;20.30;69.40
75099;DHT22;63685;47.374;8.498;2022-11-20T06:46:00;20.30;69.30
75099;DHT22;63685;47.374;8.498;2022-11-20T06:48:27;20.30;69.30
75099;DHT22;63685;47.374;8.498;2022-11-20T06:50:53;20.30;69.20
75099;DHT22;63685;47.374;8.498;2022-11-20T06:53:19;20.30;69.30
75099;DHT22;63685;47.374;8.498;2022-11-20T06:55:45;20.30;69.10
75099;DHT22;63685;47.374;8.498;2022-11-20T06:58:12;20.30;69.20
75099;DHT22;63685;47.374;8.498;2022-11-20T07:00:38;20.30;69.20
75099;DHT22;63685;47.374;8.498;2022-11-20T07:03:06;20.30;69.20
75099;DHT22;63685;47.374;8.498;2022-11-20T07:05:33;20.30;69.10
75099;DHT22;63685;47.374;8.498;2022-11-20T07:07:58;20.30;69.20
75099;DHT22;63685;47.374;8.498;2022-11-20T07:10:25;20.20;69.20
75099;DHT22;63685;47.374;8.498;2022-11-20T07:12:52;20.30;69.40
75099;DHT22;63685;47.374;8.498;2022-11-20T07:15:19;20.30;69.20
75099;DHT22;63685;47.374;8.498;2022-11-20T07:17:44;20.30;69.30
75099;DHT22;63685;47.374;8.498;2022-11-20T07:20:10;20.30;69.30
75099;DHT22;63685;47.374;8.498;2022-11-20T07:22:36;20.30;69.30
75099;DHT22;63685;47.374;8.498;2022-11-20T07:25:03;20.30;69.30
75099;DHT22;63685;47.374;8.498;2022-11-20T07:27:29;20.30;69.30
75099;DHT22;63685;47.374;8.498;2022-11-20T07:29:55;20.30;69.30
75099;DHT22;63685;47.374;8.498;2022-11-20T07:32:21;20.20;69.50
75099;DHT22;63685;47.374;8.498;2022-11-20T07:34:46;20.20;69.30
75099;DHT22;63685;47.374;8.498;2022-11-20T07:37:12;20.30;69.20
75099;DHT22;63685;47.374;8.498;2022-11-20T07:39:38;20.20;69.10
75099;DHT22;63685;47.374;8.498;2022-11-20T07:42:03;20.30;69.40
75099;DHT22;63685;47.374;8.498;2022-11-20T07:44:29;20.20;69.10
75099;DHT22;63685;47.374;8.498;2022-11-20T07:46:55;20.20;69.10
75099;DHT22;63685;47.374;8.498;2022-11-20T07:49:20;20.20;69.00
75099;DHT22;63685;47.374;8.498;2022-11-20T07:51:46;20.20;69.00
75099;DHT22;63685;47.374;8.498;2022-11-20T07:54:11;20.20;69.10
75099;DHT22;63685;47.374;8.498;2022-11-20T07:56:37;20.20;69.20
75099;DHT22;63685;47.374;8.498;2022-11-20T07:59:03;20.20;69.20
75099;DHT22;63685;47.374;8.498;2022-11-20T08:01:28;20.20;69.10
75099;DHT22;63685;47.374;8.498;2022-11-20T08:03:54;20.20;69.00
75099;DHT22;63685;47.374;8.498;2022-11-20T08:06:20;20.30;69.00
75099;DHT22;63685;47.374;8.498;2022-11-20T08:08:45;20.30;69.30
75099;DHT22;63685;47.374;8.498;2022-11-20T08:11:11;20.20;69.20
75099;DHT22;63685;47.374;8.498;2022-11-20T08:13:55;20.20;69.10
75099;DHT22;63685;47.374;8.498;2022-11-20T08:16:40;20.20;69.30
75099;DHT22;63685;47.374;8.498;2022-11-20T08:19:06;20.30;69.40
75099;DHT22;63685;47.374;8.498;2022-11-20T08:21:32;20.30;69.50
75099;DHT22;63685;47.374;8.498;2022-11-20T08:23:58;20.30;69.20
75099;DHT22;63685;47.374;8.498;2022-11-20T08:26:24;20.30;69.10
75099;DHT22;63685;47.374;8.498;2022-11-20T08:28:54;20.30;69.10
75099;DHT22;63685;47.374;8.498;2022-11-20T08:31:20;20.30;70.00
75099;DHT22;63685;47.374;8.498;2022-11-20T08:33:46;20.40;70.60
75099;DHT22;63685;47.374;8.498;2022-11-20T08:36:11;20.40;69.40
75099;DHT22;63685;47.374;8.498;2022-11-20T08:38:37;20.40;69.20
75099;DHT22;63685;47.374;8.498;2022-11-20T08:41:04;20.40;69.80
75099;DHT22;63685;47.374;8.498;2022-11-20T08:43:59;20.40;69.80
75099;DHT22;63685;47.374;8.498;2022-11-20T08:46:26;20.40;69.10
75099;DHT22;63685;47.374;8.498;2022-11-20T08:48:52;20.40;66.80
75099;DHT22;63685;47.374;8.498;2022-11-20T08:51:19;20.30;65.30
75099;DHT22;63685;47.374;8.498;2022-11-20T08:53:45;20.30;60.40
75099;DHT22;63685;47.374;8.498;2022-11-20T08:56:11;20.10;57.70
75099;DHT22;63685;47.374;8.498;2022-11-20T08:58:38;20.00;56.30
75099;DHT22;63685;47.374;8.498;2022-11-20T09:01:04;19.90;55.50
75099;DHT22;63685;47.374;8.498;2022-11-20T09:03:29;19.80;54.10
75099;DHT22;63685;47.374;8.498;2022-11-20T09:06:03;19.70;54.00
75099;DHT22;63685;47.374;8.498;2022-11-20T09:08:29;19.60;53.90
75099;DHT22;63685;47.374;8.498;2022-11-20T09:10:56;19.60;54.50
75099;DHT22;63685;47.374;8.498;2022-11-20T09:13:23;19.50;52.60
75099;DHT22;63685;47.374;8.498;2022-11-20T09:15:56;19.50;53.30
75099;DHT22;63685;47.374;8.498;2022-11-20T09:18:23;19.50;52.70
75099;DHT22;63685;47.374;8.498;2022-11-20T09:20:49;19.40;53.60
75099;DHT22;63685;47.374;8.498;2022-11-20T09:23:15;19.50;53.30
75099;DHT22;63685;47.374;8.498;2022-11-20T09:25:42;19.50;55.50
75099;DHT22;63685;47.374;8.498;2022-11-20T09:28:07;19.50;57.40
75099;DHT22;63685;47.374;8.498;2022-11-20T09:30:33;19.50;54.30
75099;DHT22;63685;47.374;8.498;2022-11-20T09:32:58;19.60;52.40
75099;DHT22;63685;47.374;8.498;2022-11-20T09:35:24;19.60;51.50
75099;DHT22;63685;47.374;8.498;2022-11-20T09:37:50;19.60;50.70
75099;DHT22;63685;47.374;8.498;2022-11-20T09:40:26;19.60;51.90
75099;DHT22;63685;47.374;8.498;2022-11-20T09:46:02;19.50;52.30
75099;DHT22;63685;47.374;8.498;2022-11-20T09:54:21;19.70;58.70
75099;DHT22;63685;47.374;8.498;2022-11-20T09:57:03;19.90;60.10
75099;DHT22;63685;47.374;8.498;2022-11-20T09:59:42;20.10;59.80
75099;DHT22;63685;47.374;8.498;2022-11-20T10:10:52;20.80;59.30
75099;DHT22;63685;47.374;8.498;2022-11-20T10:19:06;21.10;59.10
75099;DHT22;63685;47.374;8.498;2022-11-20T10:21:58;21.20;59.60
75099;DHT22;63685;47.374;8.498;2022-11-20T10:32:37;22.20;58.70
75099;DHT22;63685;47.374;8.498;2022-11-20T10:37:58;22.50;58.20
75099;DHT22;63685;47.374;8.498;2022-11-20T10:40:35;22.70;58.00
75099;DHT22;63685;47.374;8.498;2022-11-20T10:43:12;22.80;57.90
75099;DHT22;63685;47.374;8.498;2022-11-20T10:45:58;22.90;57.70
75099;DHT22;63685;47.374;8.498;2022-11-20T10:48:27;22.80;57.50
75099;DHT22;63685;47.374;8.498;2022-11-20T10:56:03;22.70;58.00
75099;DHT22;63685;47.374;8.498;2022-11-20T10:58:37;22.60;57.10
75099;DHT22;63685;47.374;8.498;2022-11-20T11:01:14;22.50;57.50
75099;DHT22;63685;47.374;8.498;2022-11-20T11:03:41;22.40;57.90
75099;DHT22;63685;47.374;8.498;2022-11-20T11:08:56;22.30;58.40
75099;DHT22;63685;47.374;8.498;2022-11-20T11:13:51;22.30;58.80
75099;DHT22;63685;47.374;8.498;2022-11-20T11:16:23;22.30;59.00
75099;DHT22;63685;47.374;8.498;2022-11-20T11:18:48;22.20;59.30
75099;DHT22;63685;47.374;8.498;2022-11-20T11:21:22;22.10;59.50
75099;DHT22;63685;47.374;8.498;2022-11-20T11:23:58;22.10;59.70
75099;DHT22;63685;47.374;8.498;2022-11-20T11:26:24;22.00;59.80
75099;DHT22;63685;47.374;8.498;2022-11-20T11:28:59;21.90;60.00
75099;DHT22;63685;47.374;8.498;2022-11-20T11:31:27;21.90;60.10
75099;DHT22;63685;47.374;8.498;2022-11-20T11:34:04;21.80;60.30
75099;DHT22;63685;47.374;8.498;2022-11-20T11:36:30;21.80;59.90
75099;DHT22;63685;47.374;8.498;2022-11-20T11:38:55;21.80;59.90
75099;DHT22;63685;47.374;8.498;2022-11-20T11:41:24;21.70;59.90
75099;DHT22;63685;47.374;8.498;2022-11-20T11:43:53;21.70;59.90
75099;DHT22;63685;47.374;8.498;2022-11-20T11:46:39;21.70;60.00
75099;DHT22;63685;47.374;8.498;2022-11-20T11:52:16;21.70;60.00
75099;DHT22;63685;47.374;8.498;2022-11-20T11:54:50;21.70;60.10
75099;DHT22;63685;47.374;8.498;2022-11-20T11:57:23;21.60;60.10
75099;DHT22;63685;47.374;8.498;2022-11-20T12:00:23;21.60;60.30
75099;DHT22;63685;47.374;8.498;2022-11-20T12:03:21;21.50;60.30
75099;DHT22;63685;47.374;8.498;2022-11-20T12:05:54;21.50;60.40
75099;DHT22;63685;47.374;8.498;2022-11-20T12:08:26;21.50;60.50
75099;DHT22;63685;47.374;8.498;2022-11-20T12:11:11;21.50;60.60
75099;DHT22;63685;47.374;8.498;2022-11-20T12:14:15;21.60;60.70
75099;DHT22;63685;47.374;8.498;2022-11-20T12:16:44;21.60;60.60
75099;DHT22;63685;47.374;8.498;2022-11-20T12:19:12;21.60;60.70
75099;DHT22;63685;47.374;8.498;2022-11-20T12:21:54;21.60;61.10
75099;DHT22;63685;47.374;8.498;2022-11-20T12:30:04;21.50;62.80
75099;DHT22;63685;47.374;8.498;2022-11-20T12:38:33;21.50;64.20
75099;DHT22;63685;47.374;8.498;2022-11-20T12:41:38;21.50;63.70
75099;DHT22;63685;47.374;8.498;2022-11-20T12:44:57;21.70;63.60
75099;DHT22;63685;47.374;8.498;2022-11-20T12:53:05;21.80;63.20
75099;DHT22;63685;47.374;8.498;2022-11-20T12:58:32;21.70;63.00
75099;DHT22;63685;47.374;8.498;2022-11-20T13:01:27;21.60;62.90
75099;DHT22;63685;47.374;8.498;2022-11-20T13:06:41;21.50;62.90
75099;DHT22;63685;47.374;8.498;2022-11-20T13:09:12;21.40;62.60
75099;DHT22;63685;47.374;8.498;2022-11-20T13:14:24;21.40;62.80
75099;DHT22;63685;47.374;8.498;2022-11-20T13:19:39;21.40;62.90
75099;DHT22;63685;47.374;8.498;2022-11-20T13:22:05;21.40;62.90
75099;DHT22;63685;47.374;8.498;2022-11-20T13:24:31;21.40;63.00
75099;DHT22;63685;47.374;8.498;2022-11-20T13:29:42;21.30;63.00
75099;DHT22;63685;47.374;8.498;2022-11-20T13:32:20;21.30;63.10
75099;DHT22;63685;47.374;8.498;2022-11-20T13:34:54;21.30;63.20
75099;DHT22;63685;47.374;8.498;2022-11-20T13:37:32;21.20;63.20
75099;DHT22;63685;47.374;8.498;2022-11-20T13:40:13;21.20;63.30
75099;DHT22;63685;47.374;8.498;2022-11-20T13:42:51;21.20;63.40
75099;DHT22;63685;47.374;8.498;2022-11-20T13:45:28;21.10;63.40
75099;DHT22;63685;47.374;8.498;2022-11-20T13:47:54;21.20;63.60
75099;DHT22;63685;47.374;8.498;2022-11-20T13:50:38;21.10;63.60
75099;DHT22;63685;47.374;8.498;2022-11-20T13:56:00;21.10;64.30
75099;DHT22;63685;47.374;8.498;2022-11-20T13:58:51;21.10;64.50
75099;DHT22;63685;47.374;8.498;2022-11-20T14:01:25;21.10;64.30
75099;DHT22;63685;47.374;8.498;2022-11-20T14:03:53;21.00;64.20
75099;DHT22;63685;47.374;8.498;2022-11-20T14:08:52;21.00;63.90
75099;DHT22;63685;47.374;8.498;2022-11-20T14:11:23;21.00;63.90
75099;DHT22;63685;47.374;8.498;2022-11-20T14:14:32;21.00;63.90
75099;DHT22;63685;47.374;8.498;2022-11-20T14:16:50;21.00;63.90
75099;DHT22;63685;47.374;8.498;2022-11-20T14:21:48;21.00;63.80
75099;DHT22;63685;47.374;8.498;2022-11-20T14:24:19;21.00;64.30
75099;DHT22;63685;47.374;8.498;2022-11-20T14:26:46;21.00;63.70
75099;DHT22;63685;47.374;8.498;2022-11-20T14:29:18;21.00;63.60
75099;DHT22;63685;47.374;8.498;2022-11-20T14:31:45;21.00;63.60
75099;DHT22;63685;47.374;8.498;2022-11-20T14:34:25;21.00;63.50
75099;DHT22;63685;47.374;8.498;2022-11-20T14:36:57;21.00;63.50
75099;DHT22;63685;47.374;8.498;2022-11-20T14:39:35;21.00;63.50
75099;DHT22;63685;47.374;8.498;2022-11-20T14:42:02;21.00;63.50
75099;DHT22;63685;47.374;8.498;2022-11-20T14:44:31;21.00;63.40
75099;DHT22;63685;47.374;8.498;2022-11-20T14:47:00;21.00;63.30
75099;DHT22;63685;47.374;8.498;2022-11-20T14:49:26;21.00;63.00
75099;DHT22;63685;47.374;8.498;2022-11-20T14:52:02;20.90;63.00
75099;DHT22;63685;47.374;8.498;2022-11-20T14:54:28;20.90;63.20
75099;DHT22;63685;47.374;8.498;2022-11-20T14:56:57;20.90;63.10
75099;DHT22;63685;47.374;8.498;2022-11-20T14:59:28;20.90;63.20
75099;DHT22;63685;47.374;8.498;2022-11-20T15:01:57;20.90;63.30
75099;DHT22;63685;47.374;8.498;2022-11-20T15:04:23;20.80;63.50
75099;DHT22;63685;47.374;8.498;2022-11-20T15:06:51;20.90;63.60
75099;DHT22;63685;47.374;8.498;2022-11-20T15:09:16;20.90;63.60
75099;DHT22;63685;47.374;8.498;2022-11-20T15:11:55;20.80;63.70
75099;DHT22;63685;47.374;8.498;2022-11-20T15:14:23;20.80;63.70
75099;DHT22;63685;47.374;8.498;2022-11-20T15:16:49;20.80;63.80
75099;DHT22;63685;47.374;8.498;2022-11-20T15:19:33;20.80;63.90
75099;DHT22;63685;47.374;8.498;2022-11-20T15:21:59;20.80;64.00
75099;DHT22;63685;47.374;8.498;2022-11-20T15:24:25;20.80;64.20
75099;DHT22;63685;47.374;8.498;2022-11-20T15:26:50;20.80;64.20
75099;DHT22;63685;47.374;8.498;2022-11-20T15:29:16;20.80;64.40
75099;DHT22;63685;47.374;8.498;2022-11-20T15:31:46;20.70;64.00
75099;DHT22;63685;47.374;8.498;2022-11-20T15:34:12;20.70;63.80
75099;DHT22;63685;47.374;8.498;2022-11-20T15:36:42;20.70;63.90
75099;DHT22;63685;47.374;8.498;2022-11-20T15:39:08;20.70;64.10
75099;DHT22;63685;47.374;8.498;2022-11-20T15:41:35;20.70;63.80
75099;DHT22;63685;47.374;8.498;2022-11-20T15:44:01;20.70;64.10
75099;DHT22;63685;47.374;8.498;2022-11-20T15:46:29;20.70;64.20
75099;DHT22;63685;47.374;8.498;2022-11-20T15:48:56;20.70;64.20
75099;DHT22;63685;47.374;8.498;2022-11-20T15:51:28;20.70;64.40
75099;DHT22;63685;47.374;8.498;2022-11-20T15:53:55;20.70;64.40
75099;DHT22;63685;47.374;8.498;2022-11-20T15:56:21;20.70;64.60
75099;DHT22;63685;47.374;8.498;2022-11-20T15:58:47;20.70;64.10
75099;DHT22;63685;47.374;8.498;2022-11-20T16:01:15;20.70;64.50
75099;DHT22;63685;47.374;8.498;2022-11-20T16:03:42;20.60;64.50
75099;DHT22;63685;47.374;8.498;2022-11-20T16:06:07;20.60;65.30
75099;DHT22;63685;47.374;8.498;2022-11-20T16:08:33;20.60;65.00
75099;DHT22;63685;47.374;8.498;2022-11-20T16:10:59;20.60;65.10
75099;DHT22;63685;47.374;8.498;2022-11-20T16:13:24;20.60;65.50
75099;DHT22;63685;47.374;8.498;2022-11-20T16:16:38;20.60;65.60
75099;DHT22;63685;47.374;8.498;2022-11-20T16:19:04;20.60;65.50
75099;DHT22;63685;47.374;8.498;2022-11-20T16:21:31;20.60;65.60
75099;DHT22;63685;47.374;8.498;2022-11-20T16:24:15;20.60;65.60
75099;DHT22;63685;47.374;8.498;2022-11-20T16:26:41;20.60;66.40
75099;DHT22;63685;47.374;8.498;2022-11-20T16:29:07;20.60;65.60
75099;DHT22;63685;47.374;8.498;2022-11-20T16:31:33;20.60;65.60
75099;DHT22;63685;47.374;8.498;2022-11-20T16:34:02;20.60;65.60
75099;DHT22;63685;47.374;8.498;2022-11-20T16:36:29;20.60;65.70
75099;DHT22;63685;47.374;8.498;2022-11-20T16:38:57;20.60;65.70
75099;DHT22;63685;47.374;8.498;2022-11-20T16:41:23;20.50;65.90
75099;DHT22;63685;47.374;8.498;2022-11-20T16:43:56;20.60;66.00
75099;DHT22;63685;47.374;8.498;2022-11-20T16:46:27;20.60;66.00
75099;DHT22;63685;47.374;8.498;2022-11-20T16:49:01;20.60;66.10
75099;DHT22;63685;47.374;8.498;2022-11-20T16:51:30;20.60;66.20
75099;DHT22;63685;47.374;8.498;2022-11-20T16:53:56;20.60;66.20
75099;DHT22;63685;47.374;8.498;2022-11-20T16:56:25;20.60;66.30
75099;DHT22;63685;47.374;8.498;2022-11-20T16:58:53;20.60;66.50
75099;DHT22;63685;47.374;8.498;2022-11-20T17:01:21;20.60;66.80
75099;DHT22;63685;47.374;8.498;2022-11-20T17:03:57;20.60;66.40
75099;DHT22;63685;47.374;8.498;2022-11-20T17:06:26;20.70;67.20
75099;DHT22;63685;47.374;8.498;2022-11-20T17:08:53;20.60;66.70
75099;DHT22;63685;47.374;8.498;2022-11-20T17:11:19;20.60;66.90
75099;DHT22;63685;47.374;8.498;2022-11-20T17:13:46;20.60;67.00